Time,TemperatureF,DewpointF,PressureIn,WindDirection,WindDirectionDegrees,WindSpeedMPH,WindSpeedGustMPH,Humidity,HourlyPrecipIn,Conditions,Clouds,dailyrainin,SolarRadiationWatts/m^2,SoftwareType,DateUTC
2013-07-12 00:00:00,57.8,52.0,30.27,SE,135,0.0,3.0,81,0.00,,,0.00,0,WeatherCatV1.20B767,2013-07-11 23:00:00,
2013-07-12 00:05:00,57.8,52.0,30.27,SE,135,0.0,3.0,81,0.00,,,0.00,0,WeatherCatV1.20B767,2013-07-11 23:05:00,
2013-07-12 00:10:00,57.0,51.6,30.27,SE,135,0.0,3.0,82,0.00,,,0.00,0,WeatherCatV1.20B767,2013-07-11 23:10:00,
2013-07-12 00:15:00,57.0,51.6,30.27,SE,135,0.0,3.0,82,0.00,,,0.00,0,WeatherCatV1.20B767,2013-07-11 23:15:00,
2013-07-12 00:20:00,57.0,51.6,30.27,SE,135,0.0,3.0,82,0.00,,,0.00,0,WeatherCatV1.20B767,2013-07-11 23:20:00,
2013-07-12 00:25:00,57.0,51.6,30.27,SE,135,0.0,3.0,82,0.00,,,0.00,0,WeatherCatV1.20B767,2013-07-11 23:25:00,
2013-07-12 00:30:00,57.0,51.6,30.27,SE,135,0.0,3.0,82,0.00,,,0.00,0,WeatherCatV1.20B767,2013-07-11 23:30:00,
2013-07-12 00:35:00,55.9,51.1,30.27,SE,135,0.0,2.0,84,0.00,,,0.00,0,WeatherCatV1.20B767,2013-07-11 23:35:00,
2013-07-12 00:40:00,55.9,51.1,30.27,SE,135,0.0,2.0,84,0.00,,,0.00,0,WeatherCatV1.20B767,2013-07-11 23:40:00,
2013-07-12 00:45:00,55.9,51.1,30.27,SE,135,0.0,2.0,84,0.00,,,0.00,0,WeatherCatV1.20B767,2013-07-11 23:45:00,
2013-07-12 00:50:00,55.9,51.1,30.27,SE,135,0.0,2.0,84,0.00,,,0.00,0,WeatherCatV1.20B767,2013-07-11 23:50:00,
2013-07-12 00:55:00,55.9,51.1,30.27,SE,135,0.0,2.0,84,0.00,,,0.00,0,WeatherCatV1.20B767,2013-07-11 23:55:00,
2013-07-12 01:00:00,55.9,51.1,30.27,SE,135,0.0,2.0,84,0.00,,,0.00,0,WeatherCatV1.20B767,2013-07-12 00:00:00,
2013-07-12 01:05:00,55.1,51.0,30.27,SE,135,0.0,0.0,86,0.00,,,0.00,0,WeatherCatV1.20B767,2013-07-12 00:05:00,
2013-07-12 01:10:00,55.1,51.0,30.27,SE,135,0.0,0.0,86,0.00,,,0.00,0,WeatherCatV1.20B767,2013-07-12 00:10:00,
2013-07-12 01:15:00,55.1,51.0,30.27,SE,135,0.0,0.0,86,0.00,,,0.00,0,WeatherCatV1.20B767,2013-07-12 00:15:00,
2013-07-12 01:20:00,55.1,51.0,30.27,SE,135,0.0,0.0,86,0.00,,,0.00,0,WeatherCatV1.20B767,2013-07-12 00:20:00,
2013-07-12 01:25:00,55.1,51.0,30.27,SE,135,0.0,0.0,86,0.00,,,0.00,0,WeatherCatV1.20B767,2013-07-12 00:25:00,
2013-07-12 01:39:00,55.1,51.0,30.27,SE,135,0.0,0.0,86,0.00,,,0.00,0,WeatherCatV1.20B767,2013-07-12 00:39:00,
2013-07-12 01:40:00,55.5,51.7,30.27,SE,128,0.0,0.0,87,0.00,,,0.00,0,WeatherCatV1.20B767,2013-07-12 00:40:00,
2013-07-12 01:45:00,55.6,51.5,30.27,SE,128,0.0,0.0,86,0.00,,,0.00,0,WeatherCatV1.20B767,2013-07-12 00:45:00,
2013-07-12 01:50:00,55.7,51.6,30.27,SE,128,0.0,1.0,86,0.00,,,0.00,0,WeatherCatV1.20B767,2013-07-12 00:50:00,
2013-07-12 01:55:00,55.8,51.7,30.27,SE,128,0.0,0.0,86,0.00,,,0.00,0,WeatherCatV1.20B767,2013-07-12 00:55:00,
2013-07-12 02:00:00,55.9,51.8,30.26,SE,128,0.0,0.0,86,0.00,,,0.00,0,WeatherCatV1.20B767,2013-07-12 01:00:00,
2013-07-12 02:05:00,55.9,51.8,30.26,SE,128,0.0,2.0,86,0.00,,,0.00,0,WeatherCatV1.20B767,2013-07-12 01:05:00,
2013-07-12 02:10:00,55.9,51.8,30.26,SE,128,0.0,0.0,86,0.00,,,0.00,0,WeatherCatV1.20B767,2013-07-12 01:10:00,
2013-07-12 02:15:00,55.9,51.8,30.27,SE,128,0.0,0.0,86,0.00,,,0.00,0,WeatherCatV1.20B767,2013-07-12 01:15:00,
2013-07-12 02:20:00,55.9,51.5,30.27,SE,128,0.0,2.0,85,0.00,,,0.00,0,WeatherCatV1.20B767,2013-07-12 01:20:00,
2013-07-12 02:25:00,55.9,51.5,30.27,SE,128,0.0,1.0,85,0.00,,,0.00,0,WeatherCatV1.20B767,2013-07-12 01:25:00,
2013-07-12 02:30:00,55.8,51.4,30.26,SE,128,0.0,1.0,85,0.00,,,0.00,0,WeatherCatV1.20B767,2013-07-12 01:30:00,
2013-07-12 02:35:00,55.7,51.3,30.27,SE,130,0.0,2.0,85,0.00,,,0.00,0,WeatherCatV1.20B767,2013-07-12 01:35:00,
2013-07-12 02:40:00,55.6,51.2,30.26,SE,130,0.0,0.0,85,0.00,,,0.00,0,WeatherCatV1.20B767,2013-07-12 01:40:00,
2013-07-12 02:45:00,55.5,51.1,30.26,SE,130,0.0,1.0,85,0.00,,,0.00,0,WeatherCatV1.20B767,2013-07-12 01:45:00,
2013-07-12 02:50:00,55.4,51.0,30.26,SE,130,0.0,1.0,85,0.00,,,0.00,0,WeatherCatV1.20B767,2013-07-12 01:50:00,
2013-07-12 02:55:00,55.3,50.9,30.27,SE,130,0.0,0.0,85,0.00,,,0.00,0,WeatherCatV1.20B767,2013-07-12 01:55:00,
2013-07-12 03:00:00,55.2,51.1,30.26,SE,130,0.0,0.0,86,0.00,,,0.00,0,WeatherCatV1.20B767,2013-07-12 02:00:00,
2013-07-12 03:05:00,55.2,51.1,30.26,SE,138,0.0,2.0,86,0.00,,,0.00,0,WeatherCatV1.20B767,2013-07-12 02:05:00,
2013-07-12 03:10:00,55.1,50.7,30.26,SE,138,0.0,1.0,85,0.00,,,0.00,0,WeatherCatV1.20B767,2013-07-12 02:10:00,
2013-07-12 03:15:00,55.0,50.6,30.26,SE,138,0.0,0.0,85,0.00,,,0.00,0,WeatherCatV1.20B767,2013-07-12 02:15:00,
2013-07-12 03:20:00,54.9,50.5,30.26,ESE,104,0.0,1.0,85,0.00,,,0.00,0,WeatherCatV1.20B767,2013-07-12 02:20:00,
2013-07-12 03:25:00,54.8,50.4,30.26,ESE,104,0.0,1.0,85,0.00,,,0.00,0,WeatherCatV1.20B767,2013-07-12 02:25:00,
2013-07-12 03:30:00,54.6,49.9,30.26,SSE,149,1.0,1.0,84,0.00,,,0.00,0,WeatherCatV1.20B767,2013-07-12 02:30:00,
2013-07-12 03:35:00,54.4,50.0,30.26,SSE,149,0.0,0.0,85,0.00,,,0.00,0,WeatherCatV1.20B767,2013-07-12 02:35:00,
2013-07-12 03:40:00,54.2,49.8,30.26,SSE,149,0.0,0.0,85,0.00,,,0.00,0,WeatherCatV1.20B767,2013-07-12 02:40:00,
2013-07-12 03:45:00,54.0,49.6,30.26,SSE,149,0.0,0.0,85,0.00,,,0.00,0,WeatherCatV1.20B767,2013-07-12 02:45:00,
2013-07-12 03:50:00,53.8,49.4,30.26,SSE,148,0.0,0.0,85,0.00,,,0.00,0,WeatherCatV1.20B767,2013-07-12 02:50:00,
2013-07-12 03:55:00,53.6,49.5,30.26,SSE,148,0.0,1.0,86,0.00,,,0.00,0,WeatherCatV1.20B767,2013-07-12 02:55:00,
2013-07-12 04:00:00,53.5,49.4,30.26,SSE,148,0.0,0.0,86,0.00,,,0.00,0,WeatherCatV1.20B767,2013-07-12 03:00:00,
2013-07-12 04:05:00,53.3,49.2,30.26,SSE,148,0.0,0.0,86,0.00,,,0.00,0,WeatherCatV1.20B767,2013-07-12 03:05:00,
2013-07-12 04:10:00,53.2,49.4,30.26,SSE,148,0.0,0.0,87,0.00,,,0.00,0,WeatherCatV1.20B767,2013-07-12 03:10:00,
2013-07-12 04:15:00,53.0,49.2,30.26,SSE,148,0.0,0.0,87,0.00,,,0.00,0,WeatherCatV1.20B767,2013-07-12 03:15:00,
2013-07-12 04:20:00,52.9,49.1,30.26,SSE,148,0.0,0.0,87,0.00,,,0.00,0,WeatherCatV1.20B767,2013-07-12 03:20:00,
2013-07-12 04:25:00,52.7,48.9,30.26,SSE,148,0.0,0.0,87,0.00,,,0.00,0,WeatherCatV1.20B767,2013-07-12 03:25:00,
2013-07-12 04:30:00,52.5,48.7,30.26,SSE,149,0.0,0.0,87,0.00,,,0.00,0,WeatherCatV1.20B767,2013-07-12 03:30:00,
2013-07-12 04:35:00,52.4,49.0,30.26,SSE,149,0.0,0.0,88,0.00,,,0.00,0,WeatherCatV1.20B767,2013-07-12 03:35:00,
2013-07-12 04:40:00,52.2,48.8,30.26,SSE,148,0.0,0.0,88,0.00,,,0.00,0,WeatherCatV1.20B767,2013-07-12 03:40:00,
2013-07-12 04:45:00,52.1,48.7,30.26,SSE,149,0.0,0.0,88,0.00,,,0.00,0,WeatherCatV1.20B767,2013-07-12 03:45:00,
2013-07-12 04:50:00,52.0,48.9,30.26,SSE,149,0.0,0.0,89,0.00,,,0.00,0,WeatherCatV1.20B767,2013-07-12 03:50:00,
2013-07-12 04:55:00,51.8,48.7,30.26,SSE,148,0.0,0.0,89,0.00,,,0.00,0,WeatherCatV1.20B767,2013-07-12 03:55:00,
2013-07-12 05:00:00,51.7,48.6,30.26,SSE,148,0.0,0.0,89,0.00,,,0.00,0,WeatherCatV1.20B767,2013-07-12 04:00:00,
2013-07-12 05:01:00,51.7,48.6,30.26,SSE,149,0.0,0.0,89,0.00,,,0.00,0,WeatherCatV1.20B767,2013-07-12 04:01:00,
2013-07-12 05:06:00,51.5,48.4,30.26,SSE,148,0.0,1.0,89,0.00,,,0.00,0,WeatherCatV1.20B767,2013-07-12 04:06:00,
2013-07-12 05:07:00,51.5,48.4,30.26,SSE,148,0.0,0.0,89,0.00,,,0.00,0,WeatherCatV1.20B767,2013-07-12 04:07:00,
2013-07-12 05:12:00,51.4,48.6,30.26,SSE,148,0.0,0.0,90,0.00,,,0.00,5,WeatherCatV1.20B767,2013-07-12 04:12:00,
2013-07-12 05:17:00,51.3,48.5,30.26,SSE,148,0.0,0.0,90,0.00,,,0.00,7,WeatherCatV1.20B767,2013-07-12 04:17:00,
2013-07-12 05:22:00,51.2,48.4,30.26,NNW,329,0.0,0.0,90,0.00,,,0.00,9,WeatherCatV1.20B767,2013-07-12 04:22:00,
2013-07-12 05:27:00,51.1,48.3,30.26,NNW,329,0.0,0.0,90,0.00,,,0.00,11,WeatherCatV1.20B767,2013-07-12 04:27:00,
2013-07-12 05:32:00,51.1,48.6,30.26,NNW,329,0.0,0.0,91,0.00,,,0.00,12,WeatherCatV1.20B767,2013-07-12 04:32:00,
2013-07-12 05:37:00,51.0,48.5,30.26,NNW,329,0.0,0.0,91,0.00,,,0.00,16,WeatherCatV1.20B767,2013-07-12 04:37:00,
2013-07-12 05:42:00,51.0,48.5,30.26,NNW,329,0.0,0.0,91,0.00,,,0.00,19,WeatherCatV1.20B767,2013-07-12 04:42:00,
2013-07-12 05:47:00,51.1,48.6,30.26,NNW,329,0.0,0.0,91,0.00,,,0.00,23,WeatherCatV1.20B767,2013-07-12 04:47:00,
2013-07-12 05:52:00,51.1,48.6,30.26,NNW,329,0.0,1.0,91,0.00,,,0.00,28,WeatherCatV1.20B767,2013-07-12 04:52:00,
2013-07-12 05:57:00,51.2,48.7,30.26,NNW,329,0.0,1.0,91,0.00,,,0.00,30,WeatherCatV1.20B767,2013-07-12 04:57:00,
2013-07-12 06:02:00,51.3,48.8,30.27,NNW,329,0.0,0.0,91,0.00,,,0.00,35,WeatherCatV1.20B767,2013-07-12 05:02:00,
2013-07-12 06:07:00,51.3,48.8,30.27,NNW,329,0.0,0.0,91,0.00,,,0.00,37,WeatherCatV1.20B767,2013-07-12 05:07:00,
2013-07-12 06:12:00,51.3,48.8,30.27,NNW,333,0.0,0.0,91,0.00,,,0.00,40,WeatherCatV1.20B767,2013-07-12 05:12:00,
2013-07-12 06:17:00,51.3,48.8,30.27,NNW,333,0.0,1.0,91,0.00,,,0.00,40,WeatherCatV1.20B767,2013-07-12 05:17:00,
2013-07-12 06:22:00,51.3,48.5,30.27,NNW,333,0.0,1.0,90,0.00,,,0.00,37,WeatherCatV1.20B767,2013-07-12 05:22:00,
2013-07-12 06:27:00,51.4,48.9,30.27,NNW,333,0.0,0.0,91,0.00,,,0.00,39,WeatherCatV1.20B767,2013-07-12 05:27:00,
2013-07-12 06:32:00,51.6,48.8,30.27,NNW,333,0.0,1.0,90,0.00,,,0.00,42,WeatherCatV1.20B767,2013-07-12 05:32:00,
2013-07-12 06:37:00,51.9,49.1,30.27,SE,138,0.0,1.0,90,0.00,,,0.00,60,WeatherCatV1.20B767,2013-07-12 05:37:00,
2013-07-12 06:42:00,52.1,49.3,30.27,SE,138,0.0,1.0,90,0.00,,,0.00,83,WeatherCatV1.20B767,2013-07-12 05:42:00,
2013-07-12 06:47:00,52.4,49.5,30.27,SE,144,0.0,1.0,90,0.00,,,0.00,95,WeatherCatV1.20B767,2013-07-12 05:47:00,
2013-07-12 06:52:00,52.7,49.8,30.27,SE,144,0.0,1.0,90,0.00,,,0.00,105,WeatherCatV1.20B767,2013-07-12 05:52:00,
2013-07-12 06:57:00,52.9,49.8,30.27,SE,144,0.0,0.0,89,0.00,,,0.00,102,WeatherCatV1.20B767,2013-07-12 05:57:00,
2013-07-12 07:02:00,53.1,49.9,30.28,SE,144,0.0,1.0,89,0.00,,,0.00,97,WeatherCatV1.20B767,2013-07-12 06:02:00,
2013-07-12 07:07:00,53.3,50.1,30.28,SE,144,1.0,1.0,89,0.00,,,0.00,107,WeatherCatV1.20B767,2013-07-12 06:07:00,
2013-07-12 07:12:00,53.5,50.0,30.28,NNW,338,1.0,2.0,88,0.00,,,0.00,98,WeatherCatV1.20B767,2013-07-12 06:12:00,
2013-07-12 07:17:00,53.7,50.2,30.28,ESE,123,1.0,3.0,88,0.00,,,0.00,100,WeatherCatV1.20B767,2013-07-12 06:17:00,
2013-07-12 07:22:00,53.8,50.3,30.28,SE,136,0.0,4.0,88,0.00,,,0.00,95,WeatherCatV1.20B767,2013-07-12 06:22:00,
2013-07-12 07:27:00,54.0,50.5,30.28,SE,136,0.0,1.0,88,0.00,,,0.00,97,WeatherCatV1.20B767,2013-07-12 06:27:00,
2013-07-12 07:32:00,54.1,50.6,30.28,SE,128,0.0,5.0,88,0.00,,,0.00,97,WeatherCatV1.20B767,2013-07-12 06:32:00,
2013-07-12 07:37:00,54.1,50.3,30.28,South,177,0.0,1.0,87,0.00,,,0.00,98,WeatherCatV1.20B767,2013-07-12 06:37:00,
2013-07-12 07:42:00,54.1,50.3,30.28,SE,142,0.0,1.0,87,0.00,,,0.00,98,WeatherCatV1.20B767,2013-07-12 06:42:00,
2013-07-12 07:47:00,54.0,50.2,30.29,East,84,0.0,2.0,87,0.00,,,0.00,95,WeatherCatV1.20B767,2013-07-12 06:47:00,
2013-07-12 07:52:00,54.0,50.2,30.29,SSE,155,1.0,1.0,87,0.00,,,0.00,83,WeatherCatV1.20B767,2013-07-12 06:52:00,
2013-07-12 07:57:00,53.9,50.4,30.29,SSE,155,0.0,1.0,88,0.00,,,0.00,86,WeatherCatV1.20B767,2013-07-12 06:57:00,
2013-07-12 08:02:00,54.0,50.5,30.29,NE,38,0.0,2.0,88,0.00,,,0.00,90,WeatherCatV1.20B767,2013-07-12 07:02:00,
2013-07-12 08:07:00,54.1,50.6,30.28,NNE,17,0.0,1.0,88,0.00,,,0.00,93,WeatherCatV1.20B767,2013-07-12 07:07:00,
2013-07-12 08:12:00,54.0,50.5,30.28,SE,127,0.0,1.0,88,0.00,,,0.00,104,WeatherCatV1.20B767,2013-07-12 07:12:00,
2013-07-12 08:17:00,54.2,50.7,30.29,SE,134,1.0,3.0,88,0.00,,,0.00,104,WeatherCatV1.20B767,2013-07-12 07:17:00,
2013-07-12 08:22:00,54.2,50.7,30.29,SE,134,0.0,0.0,88,0.00,,,0.00,107,WeatherCatV1.20B767,2013-07-12 07:22:00,
2013-07-12 08:27:00,54.3,50.8,30.29,SE,134,0.0,1.0,88,0.00,,,0.00,107,WeatherCatV1.20B767,2013-07-12 07:27:00,
2013-07-12 08:32:00,54.5,51.0,30.29,SE,134,0.0,0.0,88,0.00,,,0.00,113,WeatherCatV1.20B767,2013-07-12 07:32:00,
2013-07-12 08:37:00,54.6,51.1,30.29,SE,127,0.0,4.0,88,0.00,,,0.00,116,WeatherCatV1.20B767,2013-07-12 07:37:00,
2013-07-12 08:42:00,54.9,51.4,30.29,SE,130,6.0,6.0,88,0.00,,,0.00,120,WeatherCatV1.20B767,2013-07-12 07:42:00,
2013-07-12 08:47:00,55.0,51.2,30.29,SE,134,4.0,5.0,87,0.00,,,0.00,127,WeatherCatV1.20B767,2013-07-12 07:47:00,
2013-07-12 08:52:00,55.1,51.3,30.29,SE,128,3.0,6.0,87,0.00,,,0.00,127,WeatherCatV1.20B767,2013-07-12 07:52:00,
2013-07-12 08:57:00,55.2,51.4,30.29,SE,134,2.0,5.0,87,0.00,,,0.00,123,WeatherCatV1.20B767,2013-07-12 07:57:00,
2013-07-12 09:02:00,55.2,51.4,30.29,SE,128,0.0,2.0,87,0.00,,,0.00,128,WeatherCatV1.20B767,2013-07-12 08:02:00,
2013-07-12 09:07:00,55.3,51.5,30.30,SE,128,0.0,2.0,87,0.00,,,0.00,127,WeatherCatV1.20B767,2013-07-12 08:07:00,
2013-07-12 09:12:00,55.4,51.6,30.30,SE,128,0.0,1.0,87,0.00,,,0.00,132,WeatherCatV1.20B767,2013-07-12 08:12:00,
2013-07-12 09:17:00,55.5,51.7,30.30,SE,128,0.0,0.0,87,0.00,,,0.00,163,WeatherCatV1.20B767,2013-07-12 08:17:00,
2013-07-12 09:22:00,55.6,51.8,30.30,SE,126,1.0,1.0,87,0.00,,,0.00,174,WeatherCatV1.20B767,2013-07-12 08:22:00,
2013-07-12 09:27:00,55.8,51.7,30.30,SE,126,3.0,4.0,86,0.00,,,0.00,181,WeatherCatV1.20B767,2013-07-12 08:27:00,
2013-07-12 09:32:00,56.2,52.1,30.30,SE,126,0.0,1.0,86,0.00,,,0.00,174,WeatherCatV1.20B767,2013-07-12 08:32:00,
2013-07-12 09:37:00,56.3,51.8,30.30,SE,126,0.0,1.0,85,0.00,,,0.00,176,WeatherCatV1.20B767,2013-07-12 08:37:00,
2013-07-12 09:42:00,56.4,51.9,30.30,SE,126,3.0,3.0,85,0.00,,,0.00,195,WeatherCatV1.20B767,2013-07-12 08:42:00,
2013-07-12 09:47:00,56.6,52.1,30.30,ENE,61,1.0,2.0,85,0.00,,,0.00,253,WeatherCatV1.20B767,2013-07-12 08:47:00,
2013-07-12 09:52:00,56.8,52.0,30.30,ENE,61,0.0,1.0,84,0.00,,,0.00,234,WeatherCatV1.20B767,2013-07-12 08:52:00,
2013-07-12 09:57:00,57.2,52.4,30.30,ENE,61,0.0,1.0,84,0.00,,,0.00,234,WeatherCatV1.20B767,2013-07-12 08:57:00,
2013-07-12 10:02:00,57.3,51.8,30.30,East,86,0.0,1.0,82,0.00,,,0.00,258,WeatherCatV1.20B767,2013-07-12 09:02:00,
2013-07-12 10:07:00,57.5,52.0,30.30,East,101,1.0,1.0,82,0.00,,,0.00,295,WeatherCatV1.20B767,2013-07-12 09:07:00,
2013-07-12 10:12:00,57.8,52.3,30.30,ESE,123,2.0,4.0,82,0.00,,,0.00,299,WeatherCatV1.20B767,2013-07-12 09:12:00,
2013-07-12 10:17:00,58.1,52.3,30.30,ESE,123,1.0,1.0,81,0.00,,,0.00,302,WeatherCatV1.20B767,2013-07-12 09:17:00,
2013-07-12 10:22:00,58.2,52.1,30.30,ESE,123,0.0,1.0,80,0.00,,,0.00,274,WeatherCatV1.20B767,2013-07-12 09:22:00,
2013-07-12 10:27:00,58.5,52.7,30.30,ESE,123,0.0,2.0,81,0.00,,,0.00,265,WeatherCatV1.20B767,2013-07-12 09:27:00,
2013-07-12 10:32:00,58.8,52.6,30.30,ESE,123,0.0,1.0,80,0.00,,,0.00,276,WeatherCatV1.20B767,2013-07-12 09:32:00,
2013-07-12 10:37:00,59.0,52.5,30.30,ESE,123,0.0,0.0,79,0.00,,,0.00,297,WeatherCatV1.20B767,2013-07-12 09:37:00,
2013-07-12 10:42:00,59.2,52.7,30.30,ESE,123,3.0,3.0,79,0.00,,,0.00,315,WeatherCatV1.20B767,2013-07-12 09:42:00,
2013-07-12 10:47:00,59.4,52.9,30.30,ESE,123,2.0,2.0,79,0.00,,,0.00,306,WeatherCatV1.20B767,2013-07-12 09:47:00,
2013-07-12 10:52:00,59.9,53.0,30.30,ESE,122,1.0,3.0,78,0.00,,,0.00,315,WeatherCatV1.20B767,2013-07-12 09:52:00,
2013-07-12 10:57:00,60.4,53.5,30.30,SE,124,0.0,4.0,78,0.00,,,0.00,357,WeatherCatV1.20B767,2013-07-12 09:57:00,
2013-07-12 11:02:00,60.7,53.1,30.30,SE,124,0.0,1.0,76,0.00,,,0.00,364,WeatherCatV1.20B767,2013-07-12 10:02:00,
2013-07-12 11:07:00,60.3,52.7,30.30,SE,124,3.0,4.0,76,0.00,,,0.00,452,WeatherCatV1.20B767,2013-07-12 10:07:00,
2013-07-12 11:12:00,60.3,53.1,30.30,ESE,111,2.0,2.0,77,0.00,,,0.00,476,WeatherCatV1.20B767,2013-07-12 10:12:00,
2013-07-12 11:17:00,60.7,53.4,30.30,SE,130,4.0,4.0,77,0.00,,,0.00,462,WeatherCatV1.20B767,2013-07-12 10:17:00,
2013-07-12 11:22:00,61.1,53.8,30.30,SE,134,2.0,4.0,77,0.00,,,0.00,578,WeatherCatV1.20B767,2013-07-12 10:22:00,
2013-07-12 11:27:00,62.0,54.3,30.29,SE,134,2.0,2.0,76,0.00,,,0.00,508,WeatherCatV1.20B767,2013-07-12 10:27:00,
2013-07-12 11:32:00,62.7,54.3,30.29,SE,128,2.0,7.0,74,0.00,,,0.00,561,WeatherCatV1.20B767,2013-07-12 10:32:00,
2013-07-12 11:37:00,62.8,54.0,30.29,SE,128,0.0,1.0,73,0.00,,,0.00,715,WeatherCatV1.20B767,2013-07-12 10:37:00,
2013-07-12 11:42:00,63.2,54.0,30.29,SE,127,1.0,7.0,72,0.00,,,0.00,628,WeatherCatV1.20B767,2013-07-12 10:42:00,
2013-07-12 11:47:00,63.5,54.7,30.29,SE,136,0.0,4.0,73,0.00,,,0.00,819,WeatherCatV1.20B767,2013-07-12 10:47:00,
2013-07-12 11:52:00,63.9,54.3,30.29,SE,130,1.0,4.0,71,0.00,,,0.00,800,WeatherCatV1.20B767,2013-07-12 10:52:00,
2013-07-12 11:57:00,64.2,54.6,30.29,SE,129,5.0,5.0,71,0.00,,,0.00,779,WeatherCatV1.20B767,2013-07-12 10:57:00,
2013-07-12 12:02:00,64.2,54.6,30.29,SE,134,0.0,5.0,71,0.00,,,0.00,773,WeatherCatV1.20B767,2013-07-12 11:02:00,
2013-07-12 12:07:00,64.5,55.3,30.29,SE,132,0.0,3.0,72,0.00,,,0.00,782,WeatherCatV1.20B767,2013-07-12 11:07:00,
2013-07-12 12:12:00,65.3,54.9,30.29,SE,129,0.0,3.0,69,0.00,,,0.00,780,WeatherCatV1.20B767,2013-07-12 11:12:00,
2013-07-12 12:17:00,65.3,55.3,30.29,SE,127,4.0,6.0,70,0.00,,,0.00,775,WeatherCatV1.20B767,2013-07-12 11:17:00,
2013-07-12 12:22:00,68.0,56.2,30.29,SE,146,2.0,6.0,66,0.00,,,0.00,784,WeatherCatV1.20B767,2013-07-12 11:22:00,
2013-07-12 12:27:00,68.3,56.1,30.29,SSE,157,2.0,4.0,65,0.00,,,0.00,782,WeatherCatV1.20B767,2013-07-12 11:27:00,
2013-07-12 12:32:00,67.7,55.5,30.28,SE,127,1.0,7.0,65,0.00,,,0.00,786,WeatherCatV1.20B767,2013-07-12 11:32:00,
2013-07-12 12:37:00,67.7,55.1,30.28,SE,128,2.0,4.0,64,0.00,,,0.00,789,WeatherCatV1.20B767,2013-07-12 11:37:00,
2013-07-12 12:42:00,69.3,56.2,30.28,SE,132,0.0,4.0,63,0.00,,,0.00,796,WeatherCatV1.20B767,2013-07-12 11:42:00,
2013-07-12 12:47:00,66.7,55.0,30.28,West,271,0.0,2.0,66,0.00,,,0.00,795,WeatherCatV1.20B767,2013-07-12 11:47:00,
2013-07-12 12:52:00,68.0,56.6,30.28,SE,134,2.0,4.0,67,0.00,,,0.00,802,WeatherCatV1.20B767,2013-07-12 11:52:00,
2013-07-12 12:57:00,69.8,55.3,30.28,SE,134,0.0,0.0,60,0.00,,,0.00,795,WeatherCatV1.20B767,2013-07-12 11:57:00,
2013-07-12 13:02:00,69.5,55.9,30.28,SE,134,0.0,1.0,62,0.00,,,0.00,800,WeatherCatV1.20B767,2013-07-12 12:02:00,
2013-07-12 13:07:00,68.0,54.9,30.28,ESE,117,0.0,2.0,63,0.00,,,0.00,793,WeatherCatV1.20B767,2013-07-12 12:07:00,
2013-07-12 13:12:00,69.0,56.3,30.28,ESE,117,0.0,1.0,64,0.00,,,0.00,791,WeatherCatV1.20B767,2013-07-12 12:12:00,
2013-07-12 13:17:00,68.4,56.2,30.28,ESE,107,1.0,2.0,65,0.00,,,0.00,803,WeatherCatV1.20B767,2013-07-12 12:17:00,
2013-07-12 13:22:00,69.5,57.2,30.27,ESE,107,0.0,2.0,65,0.00,,,0.00,805,WeatherCatV1.20B767,2013-07-12 12:22:00,
2013-07-12 13:27:00,71.4,57.2,30.27,ESE,109,1.0,2.0,61,0.00,,,0.00,807,WeatherCatV1.20B767,2013-07-12 12:27:00,
2013-07-12 13:32:00,70.3,56.7,30.27,ESE,123,2.0,2.0,62,0.00,,,0.00,814,WeatherCatV1.20B767,2013-07-12 12:32:00,
2013-07-12 13:37:00,69.1,56.4,30.27,SE,132,1.0,2.0,64,0.00,,,0.00,817,WeatherCatV1.20B767,2013-07-12 12:37:00,
2013-07-12 13:42:00,70.6,56.9,30.27,East,86,0.0,1.0,62,0.00,,,0.00,773,WeatherCatV1.20B767,2013-07-12 12:42:00,
2013-07-12 13:47:00,70.2,57.9,30.27,NNW,334,0.0,3.0,65,0.00,,,0.00,260,WeatherCatV1.20B767,2013-07-12 12:47:00,
2013-07-12 13:52:00,70.0,56.8,30.27,West,274,1.0,3.0,63,0.00,,,0.00,812,WeatherCatV1.20B767,2013-07-12 12:52:00,
2013-07-12 13:57:00,71.7,57.5,30.27,South,175,0.0,3.0,61,0.00,,,0.00,791,WeatherCatV1.20B767,2013-07-12 12:57:00,
2013-07-12 14:02:00,72.7,57.0,30.27,SE,136,1.0,3.0,58,0.00,,,0.00,803,WeatherCatV1.20B767,2013-07-12 13:02:00,
2013-07-12 14:07:00,72.2,57.5,30.27,SE,127,1.0,2.0,60,0.00,,,0.00,809,WeatherCatV1.20B767,2013-07-12 13:07:00,
2013-07-12 14:12:00,71.1,57.4,30.27,NNW,329,1.0,3.0,62,0.00,,,0.00,805,WeatherCatV1.20B767,2013-07-12 13:12:00,
2013-07-12 14:17:00,70.9,56.8,30.27,WNW,288,0.0,2.0,61,0.00,,,0.00,798,WeatherCatV1.20B767,2013-07-12 13:17:00,
2013-07-12 14:22:00,71.1,57.0,30.26,WNW,287,0.0,2.0,61,0.00,,,0.00,798,WeatherCatV1.20B767,2013-07-12 13:22:00,
2013-07-12 14:27:00,71.3,57.6,30.26,WNW,288,0.0,1.0,62,0.00,,,0.00,793,WeatherCatV1.20B767,2013-07-12 13:27:00,
2013-07-12 14:32:00,72.1,57.4,30.26,SE,142,1.0,1.0,60,0.00,,,0.00,784,WeatherCatV1.20B767,2013-07-12 13:32:00,
2013-07-12 14:37:00,72.7,58.0,30.26,SSE,148,2.0,2.0,60,0.00,,,0.00,784,WeatherCatV1.20B767,2013-07-12 13:37:00,
2013-07-12 14:42:00,75.1,58.8,30.26,West,281,0.0,2.0,57,0.00,,,0.00,765,WeatherCatV1.20B767,2013-07-12 13:42:00,
2013-07-12 14:47:00,73.4,57.2,30.25,West,275,1.0,1.0,57,0.00,,,0.00,766,WeatherCatV1.20B767,2013-07-12 13:47:00,
2013-07-12 14:52:00,73.2,57.5,30.25,West,274,0.0,1.0,58,0.00,,,0.00,726,WeatherCatV1.20B767,2013-07-12 13:52:00,
2013-07-12 14:57:00,73.7,58.0,30.25,NW,321,0.0,1.0,58,0.00,,,0.00,729,WeatherCatV1.20B767,2013-07-12 13:57:00,
2013-07-12 15:02:00,74.2,58.0,30.25,NW,304,1.0,3.0,57,0.00,,,0.00,717,WeatherCatV1.20B767,2013-07-12 14:02:00,
2013-07-12 15:07:00,73.8,58.1,30.25,NW,319,0.0,1.0,58,0.00,,,0.00,728,WeatherCatV1.20B767,2013-07-12 14:07:00,
2013-07-12 15:12:00,74.3,57.6,30.25,NW,319,0.0,1.0,56,0.00,,,0.00,749,WeatherCatV1.20B767,2013-07-12 14:12:00,
2013-07-12 15:17:00,77.2,58.7,30.25,SE,134,4.0,4.0,53,0.00,,,0.00,622,WeatherCatV1.20B767,2013-07-12 14:17:00,
2013-07-12 15:22:00,75.6,57.2,30.25,South,187,0.0,2.0,53,0.00,,,0.00,628,WeatherCatV1.20B767,2013-07-12 14:22:00,
2013-07-12 15:27:00,76.6,58.2,30.25,ESE,122,1.0,5.0,53,0.00,,,0.00,710,WeatherCatV1.20B767,2013-07-12 14:27:00,
2013-07-12 15:32:00,77.5,58.5,30.25,NNW,338,1.0,2.0,52,0.00,,,0.00,705,WeatherCatV1.20B767,2013-07-12 14:32:00,
2013-07-12 15:37:00,76.5,58.1,30.24,NNW,346,0.0,1.0,53,0.00,,,0.00,701,WeatherCatV1.20B767,2013-07-12 14:37:00,
2013-07-12 15:42:00,76.4,58.0,30.25,NW,305,2.0,3.0,53,0.00,,,0.00,661,WeatherCatV1.20B767,2013-07-12 14:42:00,
2013-07-12 15:47:00,76.9,59.0,30.24,SE,138,0.0,1.0,54,0.00,,,0.00,689,WeatherCatV1.20B767,2013-07-12 14:47:00,
2013-07-12 15:52:00,77.0,57.5,30.24,South,184,0.0,1.0,51,0.00,,,0.00,679,WeatherCatV1.20B767,2013-07-12 14:52:00,
2013-07-12 15:58:00,75.4,57.6,30.24,ESE,122,3.0,3.0,54,0.00,,,0.00,615,WeatherCatV1.20B767,2013-07-12 14:58:00,
2013-07-12 16:03:00,75.8,57.4,30.24,ESE,122,0.0,2.0,53,0.00,,,0.00,543,WeatherCatV1.20B767,2013-07-12 15:03:00,
2013-07-12 16:08:00,77.1,57.6,30.24,SE,130,0.0,0.0,51,0.00,,,0.00,659,WeatherCatV1.20B767,2013-07-12 15:08:00,
2013-07-12 16:13:00,77.2,58.2,30.24,WNW,294,0.0,1.0,52,0.00,,,0.00,649,WeatherCatV1.20B767,2013-07-12 15:13:00,
2013-07-12 16:18:00,76.4,56.9,30.24,NW,311,0.0,3.0,51,0.00,,,0.00,577,WeatherCatV1.20B767,2013-07-12 15:18:00,
2013-07-12 16:23:00,76.2,57.8,30.24,WSW,241,0.0,2.0,53,0.00,,,0.00,561,WeatherCatV1.20B767,2013-07-12 15:23:00,
2013-07-12 16:28:00,79.3,58.5,30.23,SE,129,1.0,5.0,49,0.00,,,0.00,533,WeatherCatV1.20B767,2013-07-12 15:28:00,
2013-07-12 16:33:00,78.1,57.9,30.23,SE,132,0.0,2.0,50,0.00,,,0.00,575,WeatherCatV1.20B767,2013-07-12 15:33:00,
2013-07-12 16:38:00,76.5,57.0,30.23,SE,132,0.0,1.0,51,0.00,,,0.00,591,WeatherCatV1.20B767,2013-07-12 15:38:00,
2013-07-12 16:43:00,77.3,57.7,30.23,SE,132,0.0,1.0,51,0.00,,,0.00,564,WeatherCatV1.20B767,2013-07-12 15:43:00,
2013-07-12 16:48:00,78.0,57.3,30.23,SE,136,1.0,3.0,49,0.00,,,0.00,506,WeatherCatV1.20B767,2013-07-12 15:48:00,
2013-07-12 16:53:00,77.0,57.5,30.23,SE,136,0.0,0.0,51,0.00,,,0.00,543,WeatherCatV1.20B767,2013-07-12 15:53:00,
2013-07-12 16:58:00,76.4,57.5,30.23,SE,133,0.0,1.0,52,0.00,,,0.00,541,WeatherCatV1.20B767,2013-07-12 15:58:00,
2013-07-12 17:03:00,77.4,57.8,30.23,SE,131,1.0,1.0,51,0.00,,,0.00,531,WeatherCatV1.20B767,2013-07-12 16:03:00,
2013-07-12 17:08:00,79.2,58.4,30.23,SE,131,3.0,8.0,49,0.00,,,0.00,526,WeatherCatV1.20B767,2013-07-12 16:08:00,
2013-07-12 17:13:00,77.8,57.1,30.23,SE,132,0.0,1.0,49,0.00,,,0.00,515,WeatherCatV1.20B767,2013-07-12 16:13:00,
2013-07-12 17:18:00,78.6,57.8,30.22,SE,131,1.0,1.0,49,0.00,,,0.00,313,WeatherCatV1.20B767,2013-07-12 16:18:00,
2013-07-12 17:23:00,78.4,57.6,30.22,SE,131,0.0,0.0,49,0.00,,,0.00,308,WeatherCatV1.20B767,2013-07-12 16:23:00,
2013-07-12 17:28:00,77.7,57.0,30.22,SE,131,1.0,1.0,49,0.00,,,0.00,283,WeatherCatV1.20B767,2013-07-12 16:28:00,
2013-07-12 17:33:00,77.3,57.2,30.22,SE,131,0.0,1.0,50,0.00,,,0.00,294,WeatherCatV1.20B767,2013-07-12 16:33:00,
2013-07-12 17:38:00,77.7,57.6,30.22,SE,131,0.0,1.0,50,0.00,,,0.00,357,WeatherCatV1.20B767,2013-07-12 16:38:00,
2013-07-12 17:43:00,78.1,57.9,30.22,SE,132,0.0,2.0,50,0.00,,,0.00,378,WeatherCatV1.20B767,2013-07-12 16:43:00,
2013-07-12 17:48:00,78.6,58.4,30.22,SE,131,0.0,1.0,50,0.00,,,0.00,378,WeatherCatV1.20B767,2013-07-12 16:48:00,
2013-07-12 17:53:00,78.2,57.5,30.22,SE,133,1.0,2.0,49,0.00,,,0.00,367,WeatherCatV1.20B767,2013-07-12 16:53:00,
2013-07-12 17:58:00,78.6,58.4,30.22,SE,133,0.0,4.0,50,0.00,,,0.00,341,WeatherCatV1.20B767,2013-07-12 16:58:00,
2013-07-12 18:03:00,78.6,57.8,30.22,SE,130,1.0,2.0,49,0.00,,,0.00,355,WeatherCatV1.20B767,2013-07-12 17:03:00,
2013-07-12 18:08:00,78.4,57.6,30.22,SE,133,0.0,0.0,49,0.00,,,0.00,315,WeatherCatV1.20B767,2013-07-12 17:08:00,
2013-07-12 18:13:00,77.5,57.9,30.22,SE,133,0.0,0.0,51,0.00,,,0.00,271,WeatherCatV1.20B767,2013-07-12 17:13:00,
2013-07-12 18:18:00,77.3,57.7,30.22,SE,136,0.0,1.0,51,0.00,,,0.00,290,WeatherCatV1.20B767,2013-07-12 17:18:00,
2013-07-12 18:23:00,77.4,58.4,30.21,SE,136,0.0,1.0,52,0.00,,,0.00,299,WeatherCatV1.20B767,2013-07-12 17:23:00,
2013-07-12 18:28:00,78.4,58.8,30.21,SE,136,0.0,0.0,51,0.00,,,0.00,258,WeatherCatV1.20B767,2013-07-12 17:28:00,
2013-07-12 18:33:00,77.2,57.7,30.21,SE,136,0.0,1.0,51,0.00,,,0.00,243,WeatherCatV1.20B767,2013-07-12 17:33:00,
2013-07-12 18:38:00,76.6,58.2,30.21,SE,136,0.0,1.0,53,0.00,,,0.00,190,WeatherCatV1.20B767,2013-07-12 17:38:00,
2013-07-12 18:43:00,77.3,58.3,30.21,SE,136,0.0,0.0,52,0.00,,,0.00,185,WeatherCatV1.20B767,2013-07-12 17:43:00,
2013-07-12 18:48:00,76.9,57.9,30.21,SE,136,0.0,0.0,52,0.00,,,0.00,185,WeatherCatV1.20B767,2013-07-12 17:48:00,
2013-07-12 18:53:00,76.7,58.3,30.21,SE,136,0.0,0.0,53,0.00,,,0.00,146,WeatherCatV1.20B767,2013-07-12 17:53:00,
2013-07-12 18:58:00,76.5,58.6,30.21,SE,136,0.0,1.0,54,0.00,,,0.00,134,WeatherCatV1.20B767,2013-07-12 17:58:00,
2013-07-12 19:03:00,76.1,58.2,30.22,SE,136,0.0,0.0,54,0.00,,,0.00,111,WeatherCatV1.20B767,2013-07-12 18:03:00,
2013-07-12 19:08:00,75.6,58.3,30.21,SE,136,0.0,0.0,55,0.00,,,0.00,102,WeatherCatV1.20B767,2013-07-12 18:08:00,
2013-07-12 19:13:00,75.3,58.5,30.21,SE,136,0.0,1.0,56,0.00,,,0.00,100,WeatherCatV1.20B767,2013-07-12 18:13:00,
2013-07-12 19:18:00,75.2,58.4,30.21,SE,136,0.0,0.0,56,0.00,,,0.00,98,WeatherCatV1.20B767,2013-07-12 18:18:00,
2013-07-12 19:23:00,75.4,58.6,30.22,SE,136,0.0,0.0,56,0.00,,,0.00,93,WeatherCatV1.20B767,2013-07-12 18:23:00,
2013-07-12 19:28:00,75.3,58.5,30.22,SE,136,0.0,0.0,56,0.00,,,0.00,88,WeatherCatV1.20B767,2013-07-12 18:28:00,
2013-07-12 19:33:00,75.3,58.5,30.22,SE,136,0.0,0.0,56,0.00,,,0.00,83,WeatherCatV1.20B767,2013-07-12 18:33:00,
2013-07-12 19:38:00,75.0,58.2,30.22,SE,136,0.0,0.0,56,0.00,,,0.00,77,WeatherCatV1.20B767,2013-07-12 18:38:00,
2013-07-12 19:43:00,74.9,58.6,30.22,SE,136,0.0,0.0,57,0.00,,,0.00,70,WeatherCatV1.20B767,2013-07-12 18:43:00,
2013-07-12 19:48:00,74.7,58.9,30.22,SE,136,0.0,1.0,58,0.00,,,0.00,65,WeatherCatV1.20B767,2013-07-12 18:48:00,
2013-07-12 19:53:00,74.4,58.6,30.22,SE,136,0.0,0.0,58,0.00,,,0.00,62,WeatherCatV1.20B767,2013-07-12 18:53:00,
2013-07-12 19:58:00,74.0,58.3,30.22,SE,136,0.0,0.0,58,0.00,,,0.00,54,WeatherCatV1.20B767,2013-07-12 18:58:00,
2013-07-12 20:03:00,73.7,58.0,30.22,SE,136,0.0,0.0,58,0.00,,,0.00,49,WeatherCatV1.20B767,2013-07-12 19:03:00,
2013-07-12 20:08:00,73.4,58.2,30.22,SE,136,0.0,0.0,59,0.00,,,0.00,44,WeatherCatV1.20B767,2013-07-12 19:08:00,
2013-07-12 20:13:00,73.1,57.9,30.22,SE,136,0.0,0.0,59,0.00,,,0.00,39,WeatherCatV1.20B767,2013-07-12 19:13:00,
2013-07-12 20:18:00,73.0,57.8,30.22,SE,138,0.0,0.0,59,0.00,,,0.00,35,WeatherCatV1.20B767,2013-07-12 19:18:00,
2013-07-12 20:23:00,72.9,58.2,30.22,SE,138,0.0,0.0,60,0.00,,,0.00,32,WeatherCatV1.20B767,2013-07-12 19:23:00,
2013-07-12 20:28:00,72.8,58.1,30.22,SE,138,0.0,0.0,60,0.00,,,0.00,28,WeatherCatV1.20B767,2013-07-12 19:28:00,
2013-07-12 20:33:00,72.7,58.0,30.22,SE,138,0.0,0.0,60,0.00,,,0.00,25,WeatherCatV1.20B767,2013-07-12 19:33:00,
2013-07-12 20:38:00,72.5,57.8,30.22,SE,138,0.0,0.0,60,0.00,,,0.00,21,WeatherCatV1.20B767,2013-07-12 19:38:00,
2013-07-12 20:43:00,72.2,58.0,30.22,SE,138,0.0,0.0,61,0.00,,,0.00,19,WeatherCatV1.20B767,2013-07-12 19:43:00,
2013-07-12 20:48:00,72.1,57.9,30.22,SE,138,0.0,0.0,61,0.00,,,0.00,18,WeatherCatV1.20B767,2013-07-12 19:48:00,
2013-07-12 20:53:00,71.9,58.2,30.23,SE,138,0.0,0.0,62,0.00,,,0.00,12,WeatherCatV1.20B767,2013-07-12 19:53:00,
2013-07-12 20:58:00,71.7,58.0,30.23,SE,138,0.0,0.0,62,0.00,,,0.00,9,WeatherCatV1.20B767,2013-07-12 19:58:00,
2013-07-12 21:03:00,71.5,58.2,30.23,SE,138,0.0,0.0,63,0.00,,,0.00,7,WeatherCatV1.20B767,2013-07-12 20:03:00,
2013-07-12 21:08:00,71.3,58.0,30.23,SE,138,0.0,0.0,63,0.00,,,0.00,0,WeatherCatV1.20B767,2013-07-12 20:08:00,
2013-07-12 21:13:00,71.1,57.8,30.23,SE,138,0.0,0.0,63,0.00,,,0.00,0,WeatherCatV1.20B767,2013-07-12 20:13:00,
2013-07-12 21:18:00,70.9,58.1,30.23,SE,138,0.0,0.0,64,0.00,,,0.00,0,WeatherCatV1.20B767,2013-07-12 20:18:00,
2013-07-12 21:23:00,70.6,57.8,30.23,SE,138,0.0,0.0,64,0.00,,,0.00,0,WeatherCatV1.20B767,2013-07-12 20:23:00,
2013-07-12 21:28:00,70.3,58.0,30.23,SE,138,0.0,0.0,65,0.00,,,0.00,0,WeatherCatV1.20B767,2013-07-12 20:28:00,
2013-07-12 21:33:00,70.1,57.8,30.23,SE,138,0.0,0.0,65,0.00,,,0.00,0,WeatherCatV1.20B767,2013-07-12 20:33:00,
2013-07-12 21:38:00,69.8,57.9,30.23,SE,138,0.0,0.0,66,0.00,,,0.00,0,WeatherCatV1.20B767,2013-07-12 20:38:00,
2013-07-12 21:43:00,69.6,57.7,30.23,SE,138,0.0,0.0,66,0.00,,,0.00,0,WeatherCatV1.20B767,2013-07-12 20:43:00,
2013-07-12 21:48:00,69.3,57.9,30.23,SE,138,0.0,0.0,67,0.00,,,0.00,0,WeatherCatV1.20B767,2013-07-12 20:48:00,
2013-07-12 21:53:00,69.0,57.6,30.23,SE,138,0.0,0.0,67,0.00,,,0.00,0,WeatherCatV1.20B767,2013-07-12 20:53:00,
2013-07-12 21:58:00,68.9,57.9,30.23,SE,138,0.0,0.0,68,0.00,,,0.00,0,WeatherCatV1.20B767,2013-07-12 20:58:00,
2013-07-12 22:03:00,68.8,57.8,30.23,SE,138,0.0,0.0,68,0.00,,,0.00,0,WeatherCatV1.20B767,2013-07-12 21:03:00,
2013-07-12 22:08:00,68.8,57.8,30.23,SE,138,0.0,0.0,68,0.00,,,0.00,0,WeatherCatV1.20B767,2013-07-12 21:08:00,
2013-07-12 22:13:00,68.7,57.7,30.23,SE,138,0.0,0.0,68,0.00,,,0.00,0,WeatherCatV1.20B767,2013-07-12 21:13:00,
2013-07-12 22:18:00,68.6,57.6,30.23,SE,138,0.0,0.0,68,0.00,,,0.00,0,WeatherCatV1.20B767,2013-07-12 21:18:00,
2013-07-12 22:23:00,68.5,57.9,30.23,SE,138,0.0,0.0,69,0.00,,,0.00,0,WeatherCatV1.20B767,2013-07-12 21:23:00,
2013-07-12 22:28:00,68.5,57.9,30.23,SE,138,0.0,0.0,69,0.00,,,0.00,0,WeatherCatV1.20B767,2013-07-12 21:28:00,
2013-07-12 22:33:00,68.4,57.8,30.23,SE,138,0.0,0.0,69,0.00,,,0.00,0,WeatherCatV1.20B767,2013-07-12 21:33:00,
2013-07-12 22:38:00,68.3,57.7,30.23,SE,138,0.0,0.0,69,0.00,,,0.00,0,WeatherCatV1.20B767,2013-07-12 21:38:00,
2013-07-12 22:43:00,68.1,57.9,30.23,SE,138,0.0,0.0,70,0.00,,,0.00,0,WeatherCatV1.20B767,2013-07-12 21:43:00,
2013-07-12 22:48:00,67.9,57.7,30.23,SE,138,0.0,0.0,70,0.00,,,0.00,0,WeatherCatV1.20B767,2013-07-12 21:48:00,
2013-07-12 22:53:00,67.6,57.8,30.23,SE,138,0.0,0.0,71,0.00,,,0.00,0,WeatherCatV1.20B767,2013-07-12 21:53:00,
2013-07-12 22:58:00,67.3,57.6,30.23,SE,138,0.0,0.0,71,0.00,,,0.00,0,WeatherCatV1.20B767,2013-07-12 21:58:00,
2013-07-12 23:03:00,67.2,57.9,30.23,SE,138,0.0,0.0,72,0.00,,,0.00,0,WeatherCatV1.20B767,2013-07-12 22:03:00,
2013-07-12 23:08:00,67.0,57.7,30.23,SE,138,0.0,0.0,72,0.00,,,0.00,0,WeatherCatV1.20B767,2013-07-12 22:08:00,
2013-07-12 23:13:00,66.8,57.9,30.23,SE,138,0.0,0.0,73,0.00,,,0.00,0,WeatherCatV1.20B767,2013-07-12 22:13:00,
2013-07-12 23:18:00,66.6,57.7,30.23,SE,138,0.0,0.0,73,0.00,,,0.00,0,WeatherCatV1.20B767,2013-07-12 22:18:00,
2013-07-12 23:23:00,66.4,57.8,30.23,SE,138,0.0,0.0,74,0.00,,,0.00,0,WeatherCatV1.20B767,2013-07-12 22:23:00,
2013-07-12 23:28:00,66.4,57.8,30.23,SE,138,0.0,0.0,74,0.00,,,0.00,0,WeatherCatV1.20B767,2013-07-12 22:28:00,
2013-07-12 23:33:00,66.4,57.8,30.23,SE,138,0.0,0.0,74,0.00,,,0.00,0,WeatherCatV1.20B767,2013-07-12 22:33:00,
2013-07-12 23:38:00,66.2,57.7,30.23,SE,138,0.0,0.0,74,0.00,,,0.00,0,WeatherCatV1.20B767,2013-07-12 22:38:00,
2013-07-12 23:43:00,66.1,57.9,30.23,SE,138,0.0,0.0,75,0.00,,,0.00,0,WeatherCatV1.20B767,2013-07-12 22:43:00,
2013-07-12 23:48:00,66.0,57.8,30.23,SE,138,0.0,0.0,75,0.00,,,0.00,0,WeatherCatV1.20B767,2013-07-12 22:48:00,
2013-07-12 23:53:00,65.9,58.1,30.23,SE,138,0.0,0.0,76,0.00,,,0.00,0,WeatherCatV1.20B767,2013-07-12 22:53:00,
2013-07-12 23:58:00,65.8,58.0,30.23,SE,138,0.0,0.0,76,0.00,,,0.00,0,WeatherCatV1.20B767,2013-07-12 22:58:00,